createdAt,value
2019-02-28T00:01:32.088Z,7.30
2019-02-28T00:04:02.211Z,7.40
2019-02-28T00:06:31.779Z,7.50
2019-02-28T00:09:01.571Z,7.50
2019-02-28T00:11:31.302Z,7.50
2019-02-28T00:14:01.063Z,7.50
2019-02-28T00:16:30.563Z,7.40
2019-02-28T00:19:00.478Z,7.40
2019-02-28T00:21:30.208Z,7.40
2019-02-28T00:23:59.903Z,7.30
2019-02-28T00:26:29.588Z,7.30
2019-02-28T00:29:00.465Z,7.20
2019-02-28T00:31:30.814Z,7.20
2019-02-28T00:34:04.574Z,7.10
2019-02-28T00:36:31.975Z,7.20
2019-02-28T00:39:01.598Z,7.20
2019-02-28T00:41:31.251Z,7.10
2019-02-28T00:44:01.058Z,7.20
2019-02-28T00:46:30.580Z,7.20
2019-02-28T00:49:00.307Z,7.20
2019-02-28T00:51:30.781Z,7.30
2019-02-28T00:54:00.614Z,7.40
2019-02-28T00:56:30.250Z,7.40
2019-02-28T00:59:00.467Z,7.40
2019-02-28T01:01:30.922Z,7.50
2019-02-28T01:04:00.662Z,7.60
2019-02-28T01:06:30.371Z,7.60
2019-02-28T01:09:00.357Z,7.60
2019-02-28T01:11:30.082Z,7.70
2019-02-28T01:14:01.633Z,7.80
2019-02-28T01:16:31.074Z,7.90
2019-02-28T01:19:00.771Z,7.80
2019-02-28T01:21:30.416Z,7.80
2019-02-28T01:24:00.852Z,7.80
2019-02-28T01:26:31.483Z,7.70
2019-02-28T01:29:01.865Z,7.60
2019-02-28T01:31:32.537Z,7.60
2019-02-28T01:34:02.175Z,7.50
2019-02-28T01:36:31.890Z,7.50
2019-02-28T01:39:01.498Z,7.50
2019-02-28T01:41:31.110Z,7.40
2019-02-28T01:44:02.716Z,7.40
2019-02-28T01:46:32.715Z,7.40
2019-02-28T01:49:02.248Z,7.30
2019-02-28T01:51:35.675Z,7.30
2019-02-28T01:54:01.430Z,7.30
2019-02-28T01:56:31.087Z,7.20
2019-02-28T01:59:00.698Z,7.20
2019-02-28T02:01:30.996Z,7.20
2019-02-28T02:04:01.353Z,7.20
2019-02-28T02:06:31.271Z,7.10
2019-02-28T02:09:01.045Z,7.20
2019-02-28T02:11:31.034Z,7.10
2019-02-28T02:14:00.787Z,7.10
2019-02-28T02:16:30.644Z,7.00
2019-02-28T02:19:00.420Z,6.90
2019-02-28T02:21:31.517Z,6.90
2019-02-28T02:24:01.580Z,6.80
2019-02-28T02:26:31.334Z,6.70
2019-02-28T02:29:01.859Z,6.70
2019-02-28T02:31:31.765Z,6.70
2019-02-28T02:34:01.310Z,6.60
2019-02-28T02:36:31.027Z,6.70
2019-02-28T02:39:00.628Z,6.60
2019-02-28T02:41:33.309Z,6.60
2019-02-28T02:44:01.431Z,6.60
2019-02-28T02:46:31.059Z,6.60
2019-02-28T02:49:00.867Z,6.50
2019-02-28T02:51:31.383Z,6.50
2019-02-28T02:54:00.986Z,6.50
2019-02-28T02:56:30.694Z,6.50
2019-02-28T02:59:02.146Z,6.50
2019-02-28T03:01:31.623Z,6.50
2019-02-28T03:04:01.211Z,6.40
2019-02-28T03:06:30.947Z,6.40
2019-02-28T03:09:00.574Z,6.40
2019-02-28T03:11:30.289Z,6.40
2019-02-28T03:14:00.127Z,6.40
2019-02-28T03:16:33.060Z,6.30
2019-02-28T03:19:01.254Z,6.30
2019-02-28T03:21:31.035Z,6.30
2019-02-28T03:24:00.638Z,6.40
2019-02-28T03:26:30.256Z,6.40
2019-02-28T03:28:59.844Z,6.40
2019-02-28T03:31:29.532Z,6.30
2019-02-28T03:34:10.561Z,6.30
2019-02-28T03:36:30.476Z,6.40
2019-02-28T03:39:00.212Z,6.30
2019-02-28T03:41:29.931Z,6.30
2019-02-28T03:43:59.683Z,6.30
2019-02-28T03:46:29.499Z,6.30
2019-02-28T03:48:59.072Z,6.30
2019-02-28T03:51:29.601Z,6.30
2019-02-28T03:53:59.486Z,6.20
2019-02-28T03:56:29.256Z,6.20
2019-02-28T03:58:58.971Z,6.20
2019-02-28T04:01:28.655Z,6.10
2019-02-28T04:03:58.384Z,6.20
2019-02-28T04:06:28.059Z,6.20
2019-02-28T04:08:57.680Z,6.20
2019-02-28T04:11:31.376Z,6.20
2019-02-28T04:13:58.476Z,6.20
2019-02-28T04:16:28.187Z,6.30
2019-02-28T04:18:57.988Z,6.30
2019-02-28T04:21:27.674Z,6.50
2019-02-28T04:23:57.309Z,6.30
2019-02-28T04:26:29.705Z,6.30
2019-02-28T04:28:58.234Z,6.40
2019-02-28T04:31:27.975Z,6.40
2019-02-28T04:33:57.719Z,6.40
2019-02-28T04:36:27.573Z,6.40
2019-02-28T04:38:57.237Z,6.50
2019-02-28T04:41:26.855Z,6.40
2019-02-28T04:43:56.710Z,6.50
2019-02-28T04:46:28.359Z,6.40
2019-02-28T04:48:57.939Z,6.40
2019-02-28T04:51:27.602Z,6.40
2019-02-28T04:53:57.315Z,6.30
2019-02-28T04:56:26.999Z,6.30
2019-02-28T04:58:59.599Z,6.20
2019-02-28T05:01:27.934Z,6.30
2019-02-28T05:03:59.137Z,6.30
2019-02-28T05:06:28.891Z,6.20
2019-02-28T05:08:58.595Z,6.20
2019-02-28T05:11:30.731Z,6.10
2019-02-28T05:13:59.523Z,6.10
2019-02-28T05:16:29.210Z,6.10
2019-02-28T05:19:01.525Z,6.10
2019-02-28T05:21:30.225Z,6.00
2019-02-28T05:23:59.878Z,6.00
2019-02-28T05:26:29.476Z,6.00
2019-02-28T05:28:59.222Z,6.00
2019-02-28T05:31:29.099Z,6.00
2019-02-28T05:33:58.831Z,5.90
2019-02-28T05:36:28.392Z,5.90
2019-02-28T05:39:17.263Z,5.90
2019-02-28T05:41:49.463Z,5.90
2019-02-28T05:44:21.409Z,5.90
2019-02-28T05:46:51.336Z,5.90
2019-02-28T05:49:21.150Z,5.90
2019-02-28T05:51:50.851Z,5.90
2019-02-28T05:54:20.743Z,5.90
2019-02-28T05:56:50.359Z,5.80
2019-02-28T05:59:19.950Z,5.90
2019-02-28T06:01:49.534Z,5.90
2019-02-28T06:04:19.159Z,5.90
2019-02-28T06:06:51.300Z,5.90
2019-02-28T06:09:20.349Z,5.90
2019-02-28T06:11:50.094Z,5.80
2019-02-28T06:14:19.822Z,5.80
2019-02-28T06:16:49.514Z,5.80
2019-02-28T06:19:20.363Z,5.80
2019-02-28T06:21:50.216Z,5.90
2019-02-28T06:24:20.339Z,6.00
2019-02-28T06:26:50.287Z,6.00
2019-02-28T06:29:19.888Z,6.10
2019-02-28T06:31:49.509Z,6.10
2019-02-28T06:34:19.233Z,6.10
2019-02-28T06:36:49.094Z,6.10
2019-02-28T06:39:38.154Z,6.20
2019-02-28T06:42:07.762Z,6.30
2019-02-28T06:44:37.456Z,6.40
2019-02-28T06:47:07.230Z,6.50
2019-02-28T06:49:40.878Z,6.60
2019-02-28T06:52:08.308Z,6.70
2019-02-28T06:54:39.923Z,6.80
2019-02-28T06:57:09.363Z,6.80
2019-02-28T06:59:39.738Z,6.90
2019-02-28T07:02:09.577Z,6.90
2019-02-28T07:04:39.363Z,6.90
2019-02-28T07:07:10.177Z,6.90
2019-02-28T07:09:40.478Z,7.00
2019-02-28T07:12:10.359Z,7.20
2019-02-28T07:14:40.090Z,7.30
2019-02-28T07:17:10.769Z,7.30
2019-02-28T07:19:41.479Z,7.50
2019-02-28T07:22:10.546Z,7.60
2019-02-28T07:24:39.278Z,7.60
2019-02-28T07:27:08.104Z,7.70
2019-02-28T07:29:36.820Z,7.80
2019-02-28T07:32:05.497Z,7.90
2019-02-28T07:34:34.274Z,7.90
2019-02-28T07:37:02.982Z,8.00
2019-02-28T07:39:40.373Z,8.00
2019-02-28T07:42:08.222Z,8.10
2019-02-28T07:44:38.081Z,8.20
2019-02-28T07:47:08.020Z,8.30
2019-02-28T07:49:37.809Z,8.50
2019-02-28T07:52:06.667Z,8.80
2019-02-28T07:54:35.511Z,8.90
2019-02-28T07:57:04.709Z,9.00
2019-02-28T07:59:33.735Z,9.40
2019-02-28T08:02:03.179Z,9.90
2019-02-28T08:04:36.130Z,10.40
2019-02-28T08:07:07.602Z,10.70
2019-02-28T08:09:36.728Z,11.00
2019-02-28T08:12:07.302Z,11.30
2019-02-28T08:14:36.381Z,11.50
2019-02-28T08:17:05.433Z,11.80
2019-02-28T08:19:35.863Z,12.00
2019-02-28T08:22:04.572Z,12.30
2019-02-28T08:24:35.868Z,12.70
2019-02-28T08:27:04.174Z,13.00
2019-02-28T08:29:32.974Z,13.10
2019-02-28T08:32:06.589Z,12.90
2019-02-28T08:34:32.225Z,13.20
2019-02-28T08:37:01.142Z,13.30
2019-02-28T08:39:29.870Z,13.40
2019-02-28T08:42:04.599Z,13.40
2019-02-28T08:44:29.066Z,13.00
2019-02-28T08:47:17.867Z,13.20
2019-02-28T08:49:47.569Z,13.70
2019-02-28T08:52:16.317Z,13.90
2019-02-28T08:54:47.763Z,14.20
2019-02-28T08:57:16.777Z,14.10
2019-02-28T08:59:45.499Z,13.60
2019-02-28T09:02:17.967Z,13.30
2019-02-28T09:04:47.437Z,13.30
2019-02-28T09:07:15.963Z,13.80
2019-02-28T09:09:44.709Z,14.30
2019-02-28T09:12:13.389Z,14.60
2019-02-28T09:14:42.555Z,14.20
2019-02-28T09:17:11.321Z,14.30
2019-02-28T09:19:40.082Z,14.60
2019-02-28T09:22:09.043Z,14.70
2019-02-28T09:24:37.967Z,14.70
2019-02-28T09:27:06.966Z,15.30
2019-02-28T09:29:35.791Z,15.20
2019-02-28T09:32:04.672Z,15.50
2019-02-28T09:34:33.491Z,15.50
2019-02-28T09:37:02.235Z,15.50
2019-02-28T09:39:31.091Z,15.70
2019-02-28T09:42:00.081Z,15.50
2019-02-28T09:44:31.581Z,15.30
2019-02-28T09:46:59.330Z,15.50
2019-02-28T09:49:28.186Z,15.70
2019-02-28T09:51:56.940Z,15.80
2019-02-28T09:54:25.811Z,15.30
2019-02-28T09:57:15.415Z,15.50
2019-02-28T09:59:44.174Z,15.60
2019-02-28T10:02:12.961Z,15.80
2019-02-28T10:04:41.919Z,15.70
2019-02-28T10:07:10.677Z,16.00
2019-02-28T10:09:40.591Z,16.50
2019-02-28T10:12:11.069Z,16.60
2019-02-28T10:14:40.375Z,16.70
2019-02-28T10:17:09.299Z,16.40
2019-02-28T10:19:45.580Z,15.90
2019-02-28T10:22:10.128Z,15.80
2019-02-28T10:24:39.096Z,15.40
2019-02-28T10:27:08.103Z,15.30
2019-02-28T10:29:38.392Z,14.90
2019-02-28T10:32:09.016Z,14.90
2019-02-28T10:34:39.002Z,14.90
2019-02-28T10:37:07.865Z,14.80
2019-02-28T10:39:36.769Z,15.00
2019-02-28T10:42:06.116Z,15.00
2019-02-28T10:44:35.166Z,14.60
2019-02-28T10:47:03.924Z,14.30
2019-02-28T10:49:32.773Z,14.50
2019-02-28T10:52:01.543Z,14.70
2019-02-28T10:54:30.367Z,14.80
2019-02-28T10:56:59.417Z,14.70
2019-02-28T10:59:28.259Z,14.80
2019-02-28T11:01:57.020Z,14.90
2019-02-28T11:04:27.487Z,15.00
2019-02-28T11:06:59.275Z,15.10
2019-02-28T11:09:26.888Z,15.00
2019-02-28T11:11:56.968Z,15.00
2019-02-28T11:14:25.843Z,15.30
2019-02-28T11:16:59.096Z,15.70
2019-02-28T11:19:25.036Z,16.10
2019-02-28T11:21:53.834Z,16.50
2019-02-28T11:24:23.725Z,15.90
2019-02-28T11:27:12.431Z,16.00
2019-02-28T11:29:41.147Z,16.20
2019-02-28T11:32:10.127Z,16.30
2019-02-28T11:34:38.886Z,15.90
2019-02-28T11:37:09.100Z,15.60
2019-02-28T11:39:38.446Z,15.50
2019-02-28T11:42:07.218Z,15.20
2019-02-28T11:44:36.136Z,14.90
2019-02-28T11:47:08.292Z,14.50
2019-02-28T11:49:35.720Z,14.50
2019-02-28T11:52:04.459Z,14.60
2019-02-28T11:54:33.221Z,14.60
2019-02-28T11:57:03.350Z,14.60
2019-02-28T11:59:32.442Z,14.80
2019-02-28T12:02:01.244Z,14.90
2019-02-28T12:04:29.971Z,15.00
2019-02-28T12:07:00.872Z,14.90
2019-02-28T12:09:30.801Z,14.90
2019-02-28T12:11:59.611Z,14.90
2019-02-28T12:14:29.266Z,14.60
2019-02-28T12:16:58.982Z,14.40
2019-02-28T12:19:28.415Z,14.20
2019-02-28T12:21:57.265Z,14.20
2019-02-28T12:24:26.093Z,14.10
2019-02-28T12:26:54.843Z,14.20
2019-02-28T12:29:23.649Z,14.20
2019-02-28T12:31:52.483Z,14.30
2019-02-28T12:34:21.581Z,14.40
2019-02-28T12:36:50.537Z,14.40
2019-02-28T12:39:19.322Z,14.60
2019-02-28T12:41:48.245Z,14.80
2019-02-28T12:44:17.045Z,15.10
2019-02-28T12:46:46.224Z,15.30
2019-02-28T12:49:15.064Z,15.50
2019-02-28T12:51:43.883Z,15.60
2019-02-28T12:54:12.715Z,15.60
2019-02-28T12:56:47.776Z,15.60
2019-02-28T12:59:16.802Z,15.60
2019-02-28T13:01:45.679Z,15.40
2019-02-28T13:04:14.637Z,15.40
2019-02-28T13:06:43.346Z,15.30
2019-02-28T13:09:13.677Z,15.20
2019-02-28T13:11:42.587Z,15.40
2019-02-28T13:14:11.334Z,15.40
2019-02-28T13:16:40.019Z,15.40
2019-02-28T13:19:08.789Z,15.30
2019-02-28T13:21:37.647Z,15.30
2019-02-28T13:24:09.542Z,15.30
2019-02-28T13:26:36.829Z,15.30
2019-02-28T13:29:05.732Z,15.20
2019-02-28T13:31:35.572Z,15.10
2019-02-28T13:34:04.642Z,15.00
2019-02-28T13:36:33.590Z,14.90
2019-02-28T13:39:03.483Z,14.70
2019-02-28T13:41:32.518Z,14.80
2019-02-28T13:44:01.574Z,14.80
2019-02-28T13:46:33.771Z,14.80
2019-02-28T13:49:01.634Z,14.80
2019-02-28T13:51:40.563Z,14.70
2019-02-28T13:54:06.492Z,14.70
2019-02-28T13:56:34.327Z,14.70
2019-02-28T13:59:03.129Z,14.80
2019-02-28T14:01:32.075Z,14.80
2019-02-28T14:04:01.709Z,14.80
2019-02-28T14:06:30.999Z,14.70
2019-02-28T14:09:00.143Z,14.70
2019-02-28T14:11:29.133Z,14.70
2019-02-28T14:14:00.922Z,14.70
2019-02-28T14:16:29.831Z,14.70
2019-02-28T14:18:58.623Z,14.60
2019-02-28T14:21:27.314Z,14.60
2019-02-28T14:23:56.791Z,14.50
2019-02-28T14:26:25.862Z,14.40
2019-02-28T14:28:54.590Z,14.50
2019-02-28T14:31:23.512Z,14.40
2019-02-28T14:33:54.390Z,14.40
2019-02-28T14:36:23.026Z,14.40
2019-02-28T14:38:52.220Z,14.40
2019-02-28T14:41:21.089Z,14.40
2019-02-28T14:43:52.837Z,14.60
2019-02-28T14:46:20.581Z,14.60
2019-02-28T14:48:49.628Z,14.70
2019-02-28T14:51:18.626Z,14.50
2019-02-28T14:53:49.292Z,14.50
2019-02-28T14:56:19.191Z,14.50
2019-02-28T14:58:48.125Z,14.60
2019-02-28T15:01:18.930Z,14.40
2019-02-28T15:03:47.460Z,14.20
2019-02-28T15:06:16.367Z,13.70
2019-02-28T15:08:47.414Z,13.40
2019-02-28T15:11:16.161Z,13.10
2019-02-28T15:13:45.228Z,12.80
2019-02-28T15:16:14.331Z,12.60
2019-02-28T15:18:44.411Z,12.50
2019-02-28T15:21:13.412Z,12.40
2019-02-28T15:23:42.269Z,12.30
2019-02-28T15:26:11.134Z,12.20
2019-02-28T15:28:39.898Z,12.10
2019-02-28T15:31:10.255Z,11.90
2019-02-28T15:33:39.142Z,11.70
2019-02-28T15:36:07.895Z,11.60
2019-02-28T15:38:36.787Z,11.50
2019-02-28T15:41:05.575Z,11.40
2019-02-28T15:43:37.278Z,11.30
2019-02-28T15:46:08.582Z,11.20
2019-02-28T15:48:38.363Z,11.20
2019-02-28T15:51:08.406Z,11.20
2019-02-28T15:53:37.514Z,11.10
2019-02-28T15:56:13.322Z,11.10
2019-02-28T15:58:41.372Z,11.10
2019-02-28T16:01:09.928Z,11.10
2019-02-28T16:03:39.643Z,11.10
2019-02-28T16:06:09.331Z,11.10
2019-02-28T16:08:41.940Z,11.10
2019-02-28T16:11:10.621Z,11.00
2019-02-28T16:13:43.475Z,11.00
2019-02-28T16:16:13.231Z,11.00
2019-02-28T16:18:44.074Z,11.00
2019-02-28T16:21:14.614Z,11.00
2019-02-28T16:23:44.640Z,11.00
2019-02-28T16:26:14.346Z,11.00
2019-02-28T16:28:44.185Z,11.00
2019-02-28T16:31:14.007Z,11.00
2019-02-28T16:33:43.776Z,11.00
2019-02-28T16:36:13.450Z,11.00
2019-02-28T16:38:45.079Z,11.00
2019-02-28T16:41:15.008Z,11.00
2019-02-28T16:43:44.876Z,11.00
2019-02-28T16:46:15.471Z,11.00
2019-02-28T16:48:45.989Z,11.10
2019-02-28T16:51:15.851Z,11.10
2019-02-28T16:53:47.994Z,11.00
2019-02-28T16:56:21.677Z,11.00
2019-02-28T16:58:53.786Z,11.00
2019-02-28T17:01:21.902Z,11.00
2019-02-28T17:03:50.780Z,11.00
2019-02-28T17:06:19.721Z,11.00
2019-02-28T17:08:51.514Z,11.00
2019-02-28T17:11:20.704Z,11.00
2019-02-28T17:13:51.327Z,11.00
2019-02-28T17:16:26.490Z,11.00
2019-02-28T17:18:56.865Z,11.00
2019-02-28T17:21:25.710Z,11.10
2019-02-28T17:23:54.556Z,11.10
2019-02-28T17:26:25.179Z,11.00
2019-02-28T17:28:58.685Z,11.10
2019-02-28T17:31:44.588Z,11.10
2019-02-28T17:34:15.979Z,11.10
2019-02-28T17:36:47.692Z,11.10
2019-02-28T17:39:15.916Z,11.10
2019-02-28T17:41:44.807Z,11.10
2019-02-28T17:44:18.075Z,11.10
2019-02-28T17:46:48.107Z,11.10
2019-02-28T17:49:18.578Z,11.10
2019-02-28T17:51:55.527Z,11.10
2019-02-28T17:54:24.339Z,11.10
2019-02-28T17:57:11.210Z,11.10
2019-02-28T17:59:56.851Z,11.10
2019-02-28T18:02:43.843Z,11.10
2019-02-28T18:05:33.730Z,11.10
2019-02-28T18:08:08.382Z,11.00
2019-02-28T18:10:51.104Z,11.10
2019-02-28T18:13:36.626Z,11.00
2019-02-28T18:16:23.328Z,11.00
2019-02-28T18:18:53.647Z,11.10
2019-02-28T18:21:29.870Z,11.00
2019-02-28T18:24:06.194Z,11.00
2019-02-28T18:26:39.539Z,11.00
2019-02-28T18:29:15.686Z,11.00
2019-02-28T18:31:44.368Z,11.00
2019-02-28T18:34:32.507Z,11.00
2019-02-28T18:37:01.179Z,11.10
2019-02-28T18:39:50.825Z,11.10
2019-02-28T18:42:20.044Z,11.10
2019-02-28T18:44:49.036Z,11.10
2019-02-28T18:47:17.740Z,11.10
2019-02-28T18:49:46.962Z,11.00
2019-02-28T18:52:16.034Z,11.10
2019-02-28T18:54:44.834Z,11.10
2019-02-28T18:57:13.821Z,11.10
2019-02-28T18:59:42.914Z,11.10
2019-02-28T19:02:11.807Z,11.10
2019-02-28T19:04:40.591Z,11.00
2019-02-28T19:07:09.506Z,11.10
2019-02-28T19:09:38.274Z,11.00
2019-02-28T19:12:07.104Z,11.00
2019-02-28T19:14:35.801Z,11.00
2019-02-28T19:17:04.541Z,11.00
2019-02-28T19:19:33.341Z,11.00
2019-02-28T19:22:02.135Z,11.00
2019-02-28T19:24:30.934Z,11.00
2019-02-28T19:26:59.771Z,11.00
2019-02-28T19:29:28.544Z,10.90
2019-02-28T19:31:57.290Z,11.00
2019-02-28T19:34:26.215Z,10.90
2019-02-28T19:36:55.137Z,10.90
2019-02-28T19:39:23.965Z,10.90
2019-02-28T19:41:52.833Z,10.90
2019-02-28T19:44:21.810Z,10.90
2019-02-28T19:46:50.718Z,10.90
2019-02-28T19:49:19.514Z,10.80
2019-02-28T19:51:48.467Z,10.80
2019-02-28T19:54:17.182Z,10.70
2019-02-28T19:56:46.055Z,10.50
2019-02-28T19:59:14.906Z,10.50
2019-02-28T20:01:45.340Z,10.40
2019-02-28T20:04:15.511Z,10.40
2019-02-28T20:06:44.454Z,10.50
2019-02-28T20:09:13.437Z,10.50
2019-02-28T20:11:42.384Z,10.60
2019-02-28T20:14:11.203Z,10.60
2019-02-28T20:16:40.618Z,10.60
2019-02-28T20:19:09.607Z,10.70
2019-02-28T20:21:38.446Z,10.70
2019-02-28T20:24:07.661Z,10.70
2019-02-28T20:26:36.631Z,10.70
2019-02-28T20:29:05.561Z,10.60
2019-02-28T20:31:34.451Z,10.60
2019-02-28T20:34:03.439Z,10.50
2019-02-28T20:36:45.067Z,10.50
2019-02-28T20:39:14.283Z,10.50
2019-02-28T20:41:43.243Z,10.40
2019-02-28T20:44:12.070Z,10.30
2019-02-28T20:46:40.855Z,10.20
2019-02-28T20:49:10.035Z,10.20
2019-02-28T20:51:38.688Z,10.20
2019-02-28T20:54:07.523Z,10.30
2019-02-28T20:56:36.353Z,10.30
2019-02-28T20:59:05.247Z,10.30
2019-02-28T21:01:34.182Z,10.30
2019-02-28T21:04:03.092Z,10.30
2019-02-28T21:06:31.962Z,10.30
2019-02-28T21:09:00.835Z,10.30
2019-02-28T21:11:29.683Z,10.30
2019-02-28T21:13:58.449Z,10.30
2019-02-28T21:16:27.094Z,10.30
2019-02-28T21:18:55.942Z,10.30
2019-02-28T21:21:24.784Z,10.40
2019-02-28T21:23:53.626Z,10.30
2019-02-28T21:26:22.404Z,10.30
2019-02-28T21:28:51.174Z,10.30
2019-02-28T21:31:20.226Z,10.40
2019-02-28T21:33:52.120Z,10.40
2019-02-28T21:36:21.081Z,10.30
2019-02-28T21:38:49.811Z,10.30
2019-02-28T21:41:18.458Z,10.30
2019-02-28T21:43:47.165Z,10.30
2019-02-28T21:46:15.927Z,10.30
2019-02-28T21:48:44.746Z,10.20
2019-02-28T21:51:13.588Z,10.20
2019-02-28T21:53:42.423Z,10.20
2019-02-28T21:56:11.335Z,10.30
2019-02-28T21:58:40.155Z,10.20
2019-02-28T22:01:09.155Z,10.20
2019-02-28T22:03:37.970Z,10.10
2019-02-28T22:06:07.183Z,10.00
2019-02-28T22:08:36.150Z,10.00
2019-02-28T22:11:04.934Z,10.00
2019-02-28T22:13:33.900Z,10.00
2019-02-28T22:16:02.658Z,10.10
2019-02-28T22:18:31.371Z,10.10
2019-02-28T22:21:00.159Z,10.10
2019-02-28T22:23:28.954Z,10.20
2019-02-28T22:25:57.642Z,10.10
2019-02-28T22:28:26.411Z,10.10
2019-02-28T22:30:56.795Z,10.10
2019-02-28T22:33:33.363Z,10.00
2019-02-28T22:36:03.666Z,9.90
2019-02-28T22:38:32.540Z,9.90
2019-02-28T22:41:01.266Z,9.80
2019-02-28T22:43:30.105Z,9.80
2019-02-28T22:45:59.074Z,9.70
2019-02-28T22:48:27.738Z,9.70
2019-02-28T22:50:56.430Z,9.60
2019-02-28T22:53:25.345Z,9.50
2019-02-28T22:55:54.145Z,9.50
2019-02-28T22:58:22.794Z,9.50
2019-02-28T23:01:00.424Z,9.40
2019-02-28T23:03:33.176Z,9.40
2019-02-28T23:06:01.967Z,9.50
2019-02-28T23:08:30.851Z,9.40
2019-02-28T23:10:59.734Z,9.40
2019-02-28T23:13:28.690Z,9.40
2019-02-28T23:15:57.568Z,9.50
2019-02-28T23:18:26.407Z,9.50
2019-02-28T23:20:55.108Z,9.40
2019-02-28T23:23:24.089Z,9.50
2019-02-28T23:26:12.230Z,9.50
2019-02-28T23:28:42.262Z,9.50
2019-02-28T23:31:29.390Z,9.50
2019-02-28T23:34:01.518Z,9.50
2019-02-28T23:36:30.002Z,9.50
2019-02-28T23:38:58.795Z,9.50
2019-02-28T23:41:27.465Z,9.50
2019-02-28T23:43:56.229Z,9.30
2019-02-28T23:46:24.974Z,9.50
2019-02-28T23:48:53.721Z,9.50
2019-02-28T23:51:22.458Z,9.50
2019-02-28T23:53:55.378Z,9.50
2019-02-28T23:56:24.240Z,9.60
2019-02-28T23:58:53.004Z,9.60
